createdAt,value
2022-11-15T00:02:21.074Z,95.86
2022-11-15T00:07:53.386Z,95.70
2022-11-15T00:12:47.594Z,94.43
2022-11-15T00:17:50.652Z,93.01
2022-11-15T00:22:55.564Z,93.15
2022-11-15T00:27:58.934Z,100.00
2022-11-15T00:33:03.879Z,100.00
2022-11-15T00:38:07.764Z,100.00
2022-11-15T00:43:10.582Z,100.00
2022-11-15T00:48:13.101Z,100.00
2022-11-15T00:53:17.860Z,100.00
2022-11-15T00:58:20.768Z,100.00
2022-11-15T01:03:23.446Z,100.00
2022-11-15T01:08:27.407Z,100.00
2022-11-15T01:13:33.074Z,98.68
2022-11-15T01:18:35.881Z,98.46
2022-11-15T01:23:40.261Z,97.00
2022-11-15T01:28:43.969Z,95.88
2022-11-15T01:33:47.419Z,96.17
2022-11-15T01:38:56.176Z,96.36
2022-11-15T01:44:19.939Z,100.00
2022-11-15T01:49:25.642Z,100.00
2022-11-15T01:54:29.948Z,96.50
2022-11-15T01:59:33.034Z,95.67
2022-11-15T02:04:40.025Z,94.68
2022-11-15T02:09:45.279Z,100.00
2022-11-15T02:14:52.120Z,100.00
2022-11-15T02:20:38.438Z,100.00
2022-11-15T02:25:55.929Z,100.00
2022-11-15T02:31:06.924Z,100.00
2022-11-15T02:36:16.897Z,100.00
2022-11-15T02:41:26.188Z,100.00
2022-11-15T02:46:53.958Z,100.00
2022-11-15T02:51:57.816Z,99.80
2022-11-15T02:57:03.427Z,100.00
2022-11-15T03:02:20.192Z,100.00
2022-11-15T03:07:31.501Z,99.98
2022-11-15T03:12:42.827Z,97.39
2022-11-15T03:17:52.863Z,98.00
2022-11-15T03:22:57.986Z,97.67
2022-11-15T03:28:05.911Z,96.52
2022-11-15T03:33:11.754Z,96.40
2022-11-15T03:38:21.713Z,96.38
2022-11-15T03:43:32.851Z,97.16
2022-11-15T03:48:42.531Z,100.00
2022-11-15T03:53:45.125Z,98.36
2022-11-15T03:58:47.664Z,96.35
2022-11-15T04:03:51.658Z,96.50
2022-11-15T04:08:54.173Z,97.02
2022-11-15T04:13:56.693Z,95.15
2022-11-15T04:19:18.341Z,94.61
2022-11-15T04:24:20.959Z,95.13
2022-11-15T04:29:38.528Z,99.56
2022-11-15T04:34:42.408Z,100.00
2022-11-15T04:39:45.436Z,97.61
2022-11-15T04:44:48.109Z,97.46
2022-11-15T04:49:52.000Z,97.37
2022-11-15T04:54:54.676Z,95.86
2022-11-15T04:59:57.245Z,93.65
2022-11-15T05:05:01.132Z,95.84
2022-11-15T05:10:03.761Z,96.91
2022-11-15T05:15:07.331Z,97.22
2022-11-15T05:20:12.418Z,99.03
2022-11-15T05:25:14.959Z,98.20
2022-11-15T05:30:18.276Z,95.97
2022-11-15T05:35:31.871Z,99.03
2022-11-15T05:40:36.433Z,95.67
2022-11-15T05:45:38.956Z,100.00
2022-11-15T05:50:46.271Z,100.00
2022-11-15T05:55:49.569Z,100.00
2022-11-15T06:00:52.209Z,100.00
2022-11-15T06:05:56.296Z,100.00
2022-11-15T06:10:58.824Z,99.57
2022-11-15T06:16:01.890Z,97.99
2022-11-15T06:21:06.917Z,100.00
2022-11-15T06:26:09.456Z,100.00
2022-11-15T06:31:13.259Z,100.00
2022-11-15T06:36:18.262Z,99.71
2022-11-15T06:41:21.978Z,100.00
2022-11-15T06:46:24.721Z,100.00
2022-11-15T06:51:28.727Z,99.62
2022-11-15T06:56:31.373Z,97.73
2022-11-15T07:01:33.942Z,97.09
2022-11-15T07:06:37.901Z,95.73
2022-11-15T07:11:40.790Z,95.39
2022-11-15T07:16:43.360Z,95.45
2022-11-15T07:21:47.622Z,96.39
2022-11-15T07:26:50.283Z,100.00
2022-11-15T07:31:53.052Z,99.61
2022-11-15T07:37:06.070Z,98.99
2022-11-15T07:42:26.361Z,96.72
2022-11-15T07:47:30.437Z,95.51
2022-11-15T07:52:34.433Z,94.84
2022-11-15T07:57:37.359Z,99.39
2022-11-15T08:02:40.222Z,97.15
2022-11-15T08:07:44.310Z,100.00
2022-11-15T08:12:46.873Z,98.49
2022-11-15T08:17:51.048Z,96.09
2022-11-15T08:22:57.650Z,94.69
2022-11-15T08:28:01.886Z,95.58
2022-11-15T08:33:05.068Z,93.73
2022-11-15T08:38:09.030Z,97.07
2022-11-15T08:43:11.584Z,96.14
2022-11-15T08:48:14.138Z,96.07
2022-11-15T08:53:18.076Z,91.22
2022-11-15T08:58:20.694Z,90.34
2022-11-15T09:03:23.301Z,91.91
2022-11-15T09:08:48.192Z,90.54
2022-11-15T09:13:52.615Z,91.75
2022-11-15T09:18:55.697Z,92.18
2022-11-15T09:23:59.928Z,88.94
2022-11-15T09:29:03.219Z,89.51
2022-11-15T09:34:05.778Z,89.99
2022-11-15T09:39:10.375Z,87.60
2022-11-15T09:44:30.854Z,84.79
2022-11-15T09:49:34.661Z,80.08
2022-11-15T09:54:56.431Z,72.92
2022-11-15T10:05:43.263Z,62.45
2022-11-15T10:11:00.600Z,53.66
2022-11-15T10:16:24.934Z,51.90
2022-11-15T10:21:39.840Z,45.22
2022-11-15T10:26:49.690Z,44.41
2022-11-15T10:31:52.395Z,46.80
2022-11-15T10:36:59.021Z,52.48
2022-11-15T10:42:18.382Z,55.11
2022-11-15T10:47:32.422Z,59.37
2022-11-15T10:52:38.688Z,62.48
2022-11-15T10:57:52.247Z,63.78
2022-11-15T11:03:00.588Z,54.72
2022-11-15T11:08:05.995Z,49.81
2022-11-15T11:13:17.259Z,46.61
2022-11-15T11:18:25.889Z,40.03
2022-11-15T11:23:44.109Z,43.58
2022-11-15T11:28:53.845Z,40.70
2022-11-15T11:34:06.369Z,39.42
2022-11-15T11:39:21.143Z,45.70
2022-11-15T11:44:34.666Z,41.19
2022-11-15T11:49:44.227Z,37.70
2022-11-15T11:54:57.055Z,39.15
2022-11-15T12:00:06.197Z,41.22
2022-11-15T12:05:15.506Z,43.50
2022-11-15T12:10:24.260Z,42.27
2022-11-15T12:15:32.262Z,43.74
2022-11-15T12:20:38.598Z,41.98
2022-11-15T12:25:47.753Z,41.75
2022-11-15T12:30:56.761Z,42.87
2022-11-15T12:36:01.337Z,42.79
2022-11-15T12:41:20.031Z,39.09
2022-11-15T12:46:46.734Z,37.75
2022-11-15T12:52:08.648Z,39.89
2022-11-15T12:57:41.471Z,36.72
2022-11-15T13:02:46.251Z,39.48
2022-11-15T13:08:00.220Z,38.96
2022-11-15T13:13:04.459Z,39.42
2022-11-15T13:18:35.888Z,39.00
2022-11-15T13:23:38.727Z,39.41
2022-11-15T13:28:46.643Z,42.28
2022-11-15T13:33:50.885Z,40.71
2022-11-15T13:38:59.709Z,43.67
2022-11-15T13:44:03.998Z,48.22
2022-11-15T13:49:12.878Z,52.88
2022-11-15T13:54:29.510Z,54.61
2022-11-15T13:59:35.350Z,56.15
2022-11-15T14:04:41.474Z,57.82
2022-11-15T14:09:46.220Z,57.62
2022-11-15T14:14:49.276Z,57.83
2022-11-15T14:19:53.465Z,59.17
2022-11-15T14:25:19.801Z,60.39
2022-11-15T14:30:23.667Z,63.37
2022-11-15T14:35:27.614Z,62.27
2022-11-15T14:40:30.576Z,64.40
2022-11-15T14:45:33.491Z,64.29
2022-11-15T14:50:38.192Z,66.41
2022-11-15T14:55:40.914Z,68.19
2022-11-15T15:00:43.949Z,70.17
2022-11-15T15:05:48.955Z,70.78
2022-11-15T15:10:51.482Z,70.25
2022-11-15T15:15:54.656Z,71.46
2022-11-15T15:21:04.009Z,72.73
2022-11-15T15:26:06.583Z,73.41
2022-11-15T15:31:10.434Z,75.53
2022-11-15T15:36:15.764Z,77.83
2022-11-15T15:41:19.066Z,88.20
2022-11-15T15:46:22.246Z,92.36
2022-11-15T15:51:26.322Z,93.93
2022-11-15T15:56:29.153Z,85.61
2022-11-15T16:01:31.887Z,85.50
2022-11-15T16:06:43.230Z,93.36
2022-11-15T16:11:48.030Z,88.78
2022-11-15T16:16:50.663Z,85.56
2022-11-15T16:21:54.585Z,95.78
2022-11-15T16:26:57.185Z,87.41
2022-11-15T16:31:59.800Z,84.38
2022-11-15T16:37:04.037Z,82.56
2022-11-15T16:42:06.758Z,87.44
2022-11-15T16:47:18.513Z,93.46
2022-11-15T16:52:22.421Z,94.62
2022-11-15T16:57:26.113Z,87.90
2022-11-15T17:02:28.813Z,87.98
2022-11-15T17:07:32.793Z,86.25
2022-11-15T17:12:36.481Z,85.17
2022-11-15T17:17:39.035Z,85.40
2022-11-15T17:22:43.042Z,83.81
2022-11-15T17:27:45.672Z,84.45
2022-11-15T17:32:49.725Z,85.86
2022-11-15T17:37:53.645Z,83.89
2022-11-15T17:42:57.395Z,83.78
2022-11-15T17:48:00.321Z,93.02
2022-11-15T17:53:04.250Z,100.00
2022-11-15T17:58:06.840Z,99.16
2022-11-15T18:03:09.463Z,98.10
2022-11-15T18:08:17.615Z,90.96
2022-11-15T18:13:21.271Z,92.23
2022-11-15T18:18:23.825Z,91.02
2022-11-15T18:23:27.839Z,90.57
2022-11-15T18:28:33.129Z,88.88
2022-11-15T18:33:36.192Z,89.51
2022-11-15T18:38:41.326Z,96.79
2022-11-15T18:43:45.381Z,92.72
2022-11-15T18:48:50.438Z,88.86
2022-11-15T18:53:55.598Z,87.84
2022-11-15T18:59:00.038Z,91.25
2022-11-15T19:04:06.573Z,97.31
2022-11-15T19:09:11.829Z,100.00
2022-11-15T19:14:16.233Z,97.33
2022-11-15T19:19:20.922Z,91.74
2022-11-15T19:24:25.029Z,89.04
2022-11-15T19:29:28.948Z,89.41
2022-11-15T19:34:31.690Z,90.12
2022-11-15T19:39:40.939Z,88.71
2022-11-15T19:44:43.877Z,91.21
2022-11-15T19:49:47.516Z,93.73
2022-11-15T19:54:51.482Z,100.00
2022-11-15T19:59:54.055Z,96.18
2022-11-15T20:04:56.641Z,90.73
2022-11-15T20:10:01.219Z,89.40
2022-11-15T20:15:03.652Z,90.69
2022-11-15T20:20:07.431Z,92.09
2022-11-15T20:25:12.615Z,90.02
2022-11-15T20:30:15.511Z,88.90
2022-11-15T20:35:18.191Z,88.02
2022-11-15T20:40:22.251Z,86.94
2022-11-15T20:45:25.058Z,87.28
2022-11-15T20:50:42.211Z,86.92
2022-11-15T20:55:48.921Z,86.24
2022-11-15T21:00:51.662Z,98.03
2022-11-15T21:05:55.269Z,98.75
2022-11-15T21:11:16.992Z,95.17
2022-11-15T21:16:19.610Z,93.17
2022-11-15T21:21:22.434Z,90.74
2022-11-15T21:26:26.422Z,90.01
2022-11-15T21:31:29.225Z,95.64
2022-11-15T21:36:32.016Z,99.99
2022-11-15T21:41:36.384Z,94.79
2022-11-15T21:46:39.154Z,92.94
2022-11-15T21:51:42.224Z,91.27
2022-11-15T21:56:46.347Z,90.46
2022-11-15T22:02:06.767Z,97.52
2022-11-15T22:07:09.391Z,94.65
2022-11-15T22:12:13.831Z,98.67
2022-11-15T22:17:16.689Z,100.00
2022-11-15T22:22:19.362Z,94.37
2022-11-15T22:27:23.325Z,93.43
2022-11-15T22:32:25.963Z,94.36
2022-11-15T22:37:28.605Z,93.25
2022-11-15T22:42:34.473Z,90.95
2022-11-15T22:47:37.243Z,90.27
2022-11-15T22:52:39.972Z,90.63
2022-11-15T22:57:44.223Z,89.05
2022-11-15T23:02:49.581Z,88.84
2022-11-15T23:07:55.841Z,89.03
2022-11-15T23:13:17.509Z,95.72
2022-11-15T23:18:20.683Z,90.44
2022-11-15T23:23:23.422Z,89.73
2022-11-15T23:28:27.368Z,89.19
2022-11-15T23:33:47.457Z,89.35
2022-11-15T23:38:50.105Z,89.46
2022-11-15T23:43:54.300Z,91.57
2022-11-15T23:48:57.177Z,90.30
2022-11-15T23:53:59.998Z,89.21
2022-11-15T23:59:04.445Z,88.56
